Ide Min — PC8366 — position and weather

sailwx.info

Track history (hours):
 
Tides and Currents Weather Stations Pressure Air Temp Water Temp Dewpoint Dewpoint Depression Visibility Wind Speed Wind Dir Waves Ship Positions

Ide Min (Netherlands)

Ship's website: http://www.idemin.nl/english/english.html

Last reported at 2015-Apr-06 15:32 UTC. Time now 2015-Apr-21 11:40 UTC.
Position N 52°24' E 004°53'.
Warning: this ship's position is 14 days out of date.

Length 40 m; draft 2.4 m.

MMSI: 244537000.

Date/timePositionNaut miles runAvg speedWind from/ knotsBaromVisibWave heightAir tempDewpointWater temp
2015-Apr-06 15:32N 52°24' E 004°53'0 0.0
2015-Apr-06 14:32N 52°24' E 004°53'0 0.0
2015-Apr-06 13:32N 52°24' E 004°53'0 0.0
2015-Apr-06 12:34N 52°24' E 004°53'2 1.8
2015-Apr-06 11:33N 52°23' E 004°56'0 0.0
2015-Apr-06 10:33N 52°23' E 004°56'0 0.0
2015-Apr-06 09:33N 52°23' E 004°56'0 0.0
2015-Apr-06 08:33N 52°23' E 004°56'0 0.0
2015-Apr-06 07:33N 52°23' E 004°56'0 0.0
2015-Apr-06 06:33N 52°23' E 004°56'0 0.0
2015-Apr-06 05:33N 52°23' E 004°56'0 0.0
2015-Apr-06 04:33N 52°23' E 004°56'0 0.0
2015-Apr-06 03:33N 52°23' E 004°56'0 0.0
2015-Apr-06 02:33N 52°23' E 004°56'0 0.0
2015-Apr-06 01:30N 52°23' E 004°56'0 0.0
2015-Apr-06 00:33N 52°23' E 004°56'0 0.0
2015-Apr-05 23:33N 52°23' E 004°56'0 0.0
2015-Apr-05 22:33N 52°23' E 004°56'0 0.0
2015-Apr-05 21:33N 52°23' E 004°56'0 0.0
2015-Apr-05 20:33N 52°23' E 004°56'0 0.0
2015-Apr-05 19:33N 52°23' E 004°56'0 0.0
2015-Apr-05 18:33N 52°23' E 004°56'0 0.0
2015-Apr-05 17:30N 52°23' E 004°56'0 0.0
2015-Apr-05 16:30N 52°23' E 004°56'0 0.0
2015-Apr-05 15:33N 52°23' E 004°56'0 0.0
2015-Apr-05 14:33N 52°23' E 004°56'0 0.0
2015-Apr-05 13:33N 52°23' E 004°56'0 0.0
2015-Apr-05 12:34N 52°23' E 004°56'4 3.7
2015-Apr-05 11:34N 52°25' E 004°51'6 5.7
2015-Apr-05 10:33N 52°27' E 004°42'2 2.1
2015-Apr-05 09:30N 52°28' E 004°40'0 0.0
2015-Apr-05 08:33N 52°28' E 004°40'0 0.0
2015-Apr-05 07:33N 52°28' E 004°40'0 0.0
2015-Apr-05 06:33N 52°28' E 004°40'0 0.0
2015-Apr-05 05:30N 52°28' E 004°40'0 0.0
2015-Apr-05 04:30N 52°28' E 004°40'1 0.8
2015-Apr-05 03:33N 52°28' E 004°39'2 2.3
2015-Apr-05 02:34N 52°28' E 004°36'5 4.9
2015-Apr-05 01:33N 52°25' E 004°29'5 5.1
2015-Apr-05 00:33N 52°22' E 004°22'4 4.2
2015-Apr-04 23:33N 52°20' E 004°16'1 0.5
2015-Apr-04 22:33N 52°21' E 004°16'5 5.2
2015-Apr-04 21:33N 52°20' E 004°25'2 1.8
2015-Apr-04 20:33N 52°21' E 004°22'5 4.7
2015-Apr-04 19:33N 52°21' E 004°15'6 5.5
2015-Apr-04 18:33N 52°21' E 004°05'2 1.8
2015-Apr-04 17:33N 52°19' E 004°07'7 6.9
2015-Apr-04 16:33N 52°17' E 004°17'3 2.9
2015-Apr-04 15:33N 52°15' E 004°21'8 8.0
2015-Apr-04 14:33N 52°14' E 004°08'3 3.3
2015-Apr-04 13:33N 52°11' E 004°04'3 3.3
2015-Apr-04 12:33N 52°09' E 004°08'5 5.1
2015-Apr-04 11:33N 52°08' E 003°60'6 6.0
2015-Apr-04 10:33N 52°07' E 004°09'3 2.5
2015-Apr-04 09:33N 52°08' E 004°13'2 2.2
2015-Apr-04 08:33N 52°06' E 004°16'0 0.0
2015-Apr-04 07:33N 52°06' E 004°16'0 0.0
2015-Apr-04 06:33N 52°06' E 004°16'0 0.0
2015-Apr-04 05:33N 52°06' E 004°16'0 0.0
2015-Apr-04 04:33N 52°06' E 004°16'0 0.0
2015-Apr-04 03:33N 52°06' E 004°16'0 0.0
2015-Apr-04 02:33N 52°06' E 004°16'0 0.0
2015-Apr-04 01:33N 52°06' E 004°16'0 0.0
2015-Apr-04 00:33N 52°06' E 004°16'0 0.0
2015-Apr-03 23:33N 52°06' E 004°16'0 0.0
2015-Apr-03 22:33N 52°06' E 004°16'0 0.0
2015-Apr-03 21:33N 52°06' E 004°16'0 0.0
2015-Apr-03 20:33N 52°06' E 004°16'0 0.0
2015-Apr-03 19:33N 52°06' E 004°16'0 0.0
2015-Apr-03 18:32N 52°06' E 004°16'0 0.0
2015-Apr-03 17:33N 52°06' E 004°16'1 0.6
2015-Apr-03 16:33N 52°06' E 004°15'4 4.1
2015-Apr-03 15:33N 52°10' E 004°18'3 2.6
2015-Apr-03 14:33N 52°09' E 004°14'7 7.3
2015-Apr-03 13:33N 52°04' E 004°05'7 7.3
2015-Apr-03 12:33N 51°59' E 003°57'7 6.7
2015-Apr-03 11:33N 51°54' E 003°51'4 4.2
2015-Apr-03 10:34N 51°51' E 003°56'4 3.9
2015-Apr-03 09:33N 51°50' E 004°02'1 0.8
2015-Apr-03 08:33N 51°49' E 004°03'3 2.8
2015-Apr-03 07:33N 51°49' E 004°08'0 0.0
2015-Apr-03 06:33N 51°49' E 004°08'0 0.0
2015-Apr-03 05:30N 51°49' E 004°08'0 0.0
2015-Apr-03 04:30N 51°49' E 004°08'0 0.0
2015-Apr-03 03:33N 51°49' E 004°08'0 0.0
2015-Apr-03 02:33N 51°49' E 004°08'0 0.0
2015-Apr-03 01:33N 51°49' E 004°08'0 0.0
2015-Apr-03 00:30N 51°49' E 004°08'0 0.0
2015-Apr-02 23:33N 51°49' E 004°08'0 0.0
2015-Apr-02 22:33N 51°49' E 004°08'0 0.0
2015-Apr-02 21:30N 51°49' E 004°08'0 0.0
2015-Apr-02 20:33N 51°49' E 004°08'0 0.0
2015-Apr-02 19:33N 51°49' E 004°08'0 0.0
2015-Apr-02 18:27N 51°49' E 004°08'0 0.0
2015-Apr-02 17:33N 51°49' E 004°08'0 0.0
2015-Apr-02 16:15N 51°49' E 004°08'0 0.0
2015-Apr-02 15:33N 51°49' E 004°08'4 3.9
2015-Apr-02 14:33N 51°47' E 004°12'5 4.7
2015-Apr-02 13:33N 51°45' E 004°19'4 3.7
2015-Apr-02 12:32N 51°43' E 004°25'3 3.1
2015-Apr-02 11:31N 51°42' E 004°29'5 5.7
2015-Apr-02 10:33N 51°44' E 004°38'5 4.9
2015-Apr-02 09:34N 51°48' E 004°36'5 5.1
2015-Apr-02 08:33N 51°50' E 004°28'5 4.9
2015-Apr-02 07:34N 51°52' E 004°20'3 3.2
2015-Apr-02 06:34N 51°54' E 004°17'3 2.9
2015-Apr-02 05:33N 51°54' E 004°21'4 3.9
2015-Apr-02 04:34N 51°54' E 004°28'1 0.7
2015-Apr-02 03:32N 51°54' E 004°29'0 0.0
2015-Apr-02 02:31N 51°54' E 004°29'0 0.0
2015-Apr-02 01:31N 51°54' E 004°29'0 0.0
2015-Apr-02 00:31N 51°54' E 004°29'0 0.0
2015-Apr-01 23:32N 51°54' E 004°29'0 0.0
2015-Apr-01 22:31N 51°54' E 004°29'0 0.0
2015-Apr-01 21:31N 51°54' E 004°29'0 0.0
2015-Apr-01 20:31N 51°54' E 004°29'0 0.0
2015-Apr-01 19:31N 51°54' E 004°29'0 0.0
2015-Apr-01 18:31N 51°54' E 004°29'0 0.0
2015-Apr-01 17:32N 51°54' E 004°29'0 0.0
2015-Apr-01 16:31N 51°54' E 004°29'0 0.0
2015-Apr-01 15:31N 51°54' E 004°29'0 0.0
2015-Apr-01 14:31N 51°54' E 004°29'0 0.0
2015-Apr-01 13:31N 51°54' E 004°29'0 0.0
2015-Apr-01 12:31N 51°54' E 004°29'0 0.0
2015-Apr-01 11:31N 51°54' E 004°29'0 0.0
2015-Apr-01 10:31N 51°54' E 004°29'0 0.0
2015-Apr-01 09:31N 51°54' E 004°29'0 0.0
2015-Apr-01 08:31N 51°54' E 004°29'0 0.0
2015-Apr-01 07:31N 51°54' E 004°29'0 0.0
2015-Apr-01 06:31N 51°54' E 004°29'0 0.0
2015-Apr-01 05:31N 51°54' E 004°29'0 0.0
2015-Apr-01 04:31N 51°54' E 004°29'0 0.0
2015-Apr-01 03:31N 51°54' E 004°29'0 0.0
2015-Apr-01 02:31N 51°54' E 004°29'0 0.0
2015-Apr-01 01:31N 51°54' E 004°29'0 0.0
2015-Apr-01 00:31N 51°54' E 004°29'0 0.0
2015-Mar-31 23:31N 51°54' E 004°29'0 0.0
2015-Mar-31 22:31N 51°54' E 004°29'0 0.0
2015-Mar-31 21:31N 51°54' E 004°29'0 0.0
2015-Mar-31 20:28N 51°54' E 004°29'0 0.0
2015-Mar-31 19:31N 51°54' E 004°29'0 0.0
2015-Mar-31 18:31N 51°54' E 004°29'0 0.0
2015-Mar-31 17:31N 51°54' E 004°29'0 0.0
2015-Mar-31 16:29N 51°54' E 004°29'0 0.0
2015-Mar-31 15:32N 51°54' E 004°29'0 0.0
2015-Mar-31 14:32N 51°54' E 004°29'0 0.0
2015-Mar-31 13:32N 51°54' E 004°29'0 0.0
2015-Mar-31 12:32N 51°54' E 004°29'0 0.0
2015-Mar-31 11:32N 51°54' E 004°29'0 0.0
2015-Mar-31 10:32N 51°54' E 004°29'0 0.0
2015-Mar-31 09:32N 51°54' E 004°29'0 0.0
2015-Mar-31 08:32N 51°54' E 004°29'0 0.0
2015-Mar-31 07:32N 51°54' E 004°29'0 0.0
2015-Mar-31 06:32N 51°54' E 004°29'0 0.0
2015-Mar-31 05:32N 51°54' E 004°29'0 0.0
2015-Mar-31 04:32N 51°54' E 004°29'0 0.0
2015-Mar-31 03:32N 51°54' E 004°29'0 0.0
2015-Mar-31 02:32N 51°54' E 004°29'0 0.0
2015-Mar-31 01:32N 51°54' E 004°29'0 0.0
2015-Mar-31 00:32N 51°54' E 004°29'0 0.0
2015-Mar-30 23:32N 51°54' E 004°29'0 0.0
2015-Mar-30 22:32N 51°54' E 004°29'0 0.0
2015-Mar-30 21:32N 51°54' E 004°29'0 0.0
2015-Mar-30 20:32N 51°54' E 004°29'0 0.0
2015-Mar-30 19:32N 51°54' E 004°29'0 0.0
2015-Mar-30 18:32N 51°54' E 004°29'0 0.0
2015-Mar-30 17:32N 51°54' E 004°29'0 0.0
2015-Mar-30 16:32N 51°54' E 004°29'0 0.0
2015-Mar-30 15:32N 51°54' E 004°29'0 0.0
2015-Mar-30 14:32N 51°54' E 004°29'0 0.0
2015-Mar-30 13:32N 51°54' E 004°29'0 0.0
2015-Mar-30 12:32N 51°54' E 004°29'0 0.0
2015-Mar-30 11:32N 51°54' E 004°29'0 0.0
2015-Mar-30 10:32N 51°54' E 004°29'0 0.0
2015-Mar-30 09:32N 51°54' E 004°29'0 0.0
2015-Mar-30 08:32N 51°54' E 004°29'0 0.0
2015-Mar-30 07:32N 51°54' E 004°29'0 0.0
2015-Mar-30 06:29N 51°54' E 004°29'0 0.0
2015-Mar-30 05:32N 51°54' E 004°29'0 0.0
2015-Mar-30 04:32N 51°54' E 004°29'0 0.0
2015-Mar-30 03:32N 51°54' E 004°29'0 0.0
2015-Mar-30 02:32N 51°54' E 004°29'0 0.0
2015-Mar-30 01:32N 51°54' E 004°29'0 0.0
2015-Mar-30 00:32N 51°54' E 004°29'0 0.0
2015-Mar-29 23:32N 51°54' E 004°29'0 0.0
2015-Mar-29 22:32N 51°54' E 004°29'0 0.0
2015-Mar-29 21:32N 51°54' E 004°29'0 0.0
2015-Mar-29 20:29N 51°54' E 004°29'0 0.0
2015-Mar-29 19:32N 51°54' E 004°29'0 0.0
2015-Mar-29 18:32N 51°54' E 004°29'0 0.0
2015-Mar-29 17:32N 51°54' E 004°29'0 0.0
2015-Mar-29 16:32N 51°54' E 004°29'0 0.0
2015-Mar-29 15:32N 51°54' E 004°29'0 0.0
2015-Mar-29 14:32N 51°54' E 004°29'0 0.0
2015-Mar-29 13:32N 51°54' E 004°29'0 0.0
2015-Mar-29 12:32N 51°54' E 004°29'0 0.0
2015-Mar-29 11:32N 51°54' E 004°29'0 0.0
2015-Mar-29 10:32N 51°54' E 004°29'0 0.0
2015-Mar-29 09:32N 51°54' E 004°29'0 0.0
2015-Mar-29 08:32N 51°54' E 004°29'0 0.0
2015-Mar-29 07:29N 51°54' E 004°29'0 0.0
2015-Mar-29 06:29N 51°54' E 004°29'0 0.0
2015-Mar-29 05:29N 51°54' E 004°29'0 0.0
2015-Mar-29 04:32N 51°54' E 004°29'0 0.0
2015-Mar-29 03:32N 51°54' E 004°29'0 0.0
2015-Mar-29 02:32N 51°54' E 004°29'0 0.0
2015-Mar-29 01:32N 51°54' E 004°29'0 0.0
2015-Mar-29 00:32N 51°54' E 004°29'0 0.0
2015-Mar-28 23:32N 51°54' E 004°29'0 0.0
2015-Mar-28 22:32N 51°54' E 004°29'0 0.0
2015-Mar-28 21:32N 51°54' E 004°29'0 0.0
2015-Mar-28 20:32N 51°54' E 004°29'0 0.0
2015-Mar-28 19:32N 51°54' E 004°29'0 0.0
2015-Mar-28 18:32N 51°54' E 004°29'0 0.0
2015-Mar-28 17:32N 51°54' E 004°29'0 0.0
2015-Mar-28 16:29N 51°54' E 004°29'0 0.0
2015-Mar-28 15:32N 51°54' E 004°29'0 0.0
2015-Mar-28 14:32N 51°54' E 004°29'0 0.0
2015-Mar-28 13:32N 51°54' E 004°29'0 0.0
2015-Mar-28 12:32N 51°54' E 004°29'0 0.0
2015-Mar-28 11:32N 51°54' E 004°29'0 0.0
2015-Mar-28 10:32N 51°54' E 004°29'0 0.0
2015-Mar-28 09:32N 51°54' E 004°29'0 0.0
2015-Mar-28 08:32N 51°54' E 004°29'0 0.0
2015-Mar-28 07:32N 51°54' E 004°29'0 0.0
2015-Mar-28 06:32N 51°54' E 004°29'0 0.0
2015-Mar-28 05:32N 51°54' E 004°29'0 0.0
2015-Mar-28 04:32N 51°54' E 004°29'0 0.0
2015-Mar-28 03:29N 51°54' E 004°29'0 0.0
2015-Mar-28 02:32N 51°54' E 004°29'0 0.0
2015-Mar-28 01:32N 51°54' E 004°29'0 0.0
2015-Mar-28 00:29N 51°54' E 004°29'0 0.0
2015-Mar-27 23:32N 51°54' E 004°29'0 0.0
2015-Mar-27 22:32N 51°54' E 004°29'  
Track history (hours):
 
Tides and Currents Weather Stations Pressure Air Temp Water Temp Dewpoint Dewpoint Depression Visibility Wind Speed Wind Dir Waves Ship Positions

Ide Min (Netherlands)

Ship's website: http://www.idemin.nl/english/english.html

Last reported at 2015-Apr-06 15:32 UTC. Time now 2015-Apr-21 11:40 UTC.
Position N 52°24' E 004°53'.
Warning: this ship's position is 14 days out of date.

Length 40 m; draft 2.4 m.

MMSI: 244537000.

Date/timePositionNaut miles runAvg speedWind from/ knotsBaromVisibWave heightAir tempDewpointWater temp
2015-Apr-06 15:32N 52°24' E 004°53'0 0.0
2015-Apr-06 14:32N 52°24' E 004°53'0 0.0
2015-Apr-06 13:32N 52°24' E 004°53'0 0.0
2015-Apr-06 12:34N 52°24' E 004°53'2 1.8
2015-Apr-06 11:33N 52°23' E 004°56'0 0.0
2015-Apr-06 10:33N 52°23' E 004°56'0 0.0
2015-Apr-06 09:33N 52°23' E 004°56'0 0.0
2015-Apr-06 08:33N 52°23' E 004°56'0 0.0
2015-Apr-06 07:33N 52°23' E 004°56'0 0.0
2015-Apr-06 06:33N 52°23' E 004°56'0 0.0
2015-Apr-06 05:33N 52°23' E 004°56'0 0.0
2015-Apr-06 04:33N 52°23' E 004°56'0 0.0
2015-Apr-06 03:33N 52°23' E 004°56'0 0.0
2015-Apr-06 02:33N 52°23' E 004°56'0 0.0
2015-Apr-06 01:30N 52°23' E 004°56'0 0.0
2015-Apr-06 00:33N 52°23' E 004°56'0 0.0
2015-Apr-05 23:33N 52°23' E 004°56'0 0.0
2015-Apr-05 22:33N 52°23' E 004°56'0 0.0
2015-Apr-05 21:33N 52°23' E 004°56'0 0.0
2015-Apr-05 20:33N 52°23' E 004°56'0 0.0
2015-Apr-05 19:33N 52°23' E 004°56'0 0.0
2015-Apr-05 18:33N 52°23' E 004°56'0 0.0
2015-Apr-05 17:30N 52°23' E 004°56'0 0.0
2015-Apr-05 16:30N 52°23' E 004°56'0 0.0
2015-Apr-05 15:33N 52°23' E 004°56'0 0.0
2015-Apr-05 14:33N 52°23' E 004°56'0 0.0
2015-Apr-05 13:33N 52°23' E 004°56'0 0.0
2015-Apr-05 12:34N 52°23' E 004°56'4 3.7
2015-Apr-05 11:34N 52°25' E 004°51'6 5.7
2015-Apr-05 10:33N 52°27' E 004°42'2 2.1
2015-Apr-05 09:30N 52°28' E 004°40'0 0.0
2015-Apr-05 08:33N 52°28' E 004°40'0 0.0
2015-Apr-05 07:33N 52°28' E 004°40'0 0.0
2015-Apr-05 06:33N 52°28' E 004°40'0 0.0
2015-Apr-05 05:30N 52°28' E 004°40'0 0.0
2015-Apr-05 04:30N 52°28' E 004°40'1 0.8
2015-Apr-05 03:33N 52°28' E 004°39'2 2.3
2015-Apr-05 02:34N 52°28' E 004°36'5 4.9
2015-Apr-05 01:33N 52°25' E 004°29'5 5.1
2015-Apr-05 00:33N 52°22' E 004°22'4 4.2
2015-Apr-04 23:33N 52°20' E 004°16'1 0.5
2015-Apr-04 22:33N 52°21' E 004°16'5 5.2
2015-Apr-04 21:33N 52°20' E 004°25'2 1.8
2015-Apr-04 20:33N 52°21' E 004°22'5 4.7
2015-Apr-04 19:33N 52°21' E 004°15'6 5.5
2015-Apr-04 18:33N 52°21' E 004°05'2 1.8
2015-Apr-04 17:33N 52°19' E 004°07'7 6.9
2015-Apr-04 16:33N 52°17' E 004°17'3 2.9
2015-Apr-04 15:33N 52°15' E 004°21'8 8.0
2015-Apr-04 14:33N 52°14' E 004°08'3 3.3
2015-Apr-04 13:33N 52°11' E 004°04'3 3.3
2015-Apr-04 12:33N 52°09' E 004°08'5 5.1
2015-Apr-04 11:33N 52°08' E 003°60'6 6.0
2015-Apr-04 10:33N 52°07' E 004°09'3 2.5
2015-Apr-04 09:33N 52°08' E 004°13'2 2.2
2015-Apr-04 08:33N 52°06' E 004°16'0 0.0
2015-Apr-04 07:33N 52°06' E 004°16'0 0.0
2015-Apr-04 06:33N 52°06' E 004°16'0 0.0
2015-Apr-04 05:33N 52°06' E 004°16'0 0.0
2015-Apr-04 04:33N 52°06' E 004°16'0 0.0
2015-Apr-04 03:33N 52°06' E 004°16'0 0.0
2015-Apr-04 02:33N 52°06' E 004°16'0 0.0
2015-Apr-04 01:33N 52°06' E 004°16'0 0.0
2015-Apr-04 00:33N 52°06' E 004°16'0 0.0
2015-Apr-03 23:33N 52°06' E 004°16'0 0.0
2015-Apr-03 22:33N 52°06' E 004°16'0 0.0
2015-Apr-03 21:33N 52°06' E 004°16'0 0.0
2015-Apr-03 20:33N 52°06' E 004°16'0 0.0
2015-Apr-03 19:33N 52°06' E 004°16'0 0.0
2015-Apr-03 18:32N 52°06' E 004°16'0 0.0
2015-Apr-03 17:33N 52°06' E 004°16'1 0.6
2015-Apr-03 16:33N 52°06' E 004°15'4 4.1
2015-Apr-03 15:33N 52°10' E 004°18'3 2.6
2015-Apr-03 14:33N 52°09' E 004°14'7 7.3
2015-Apr-03 13:33N 52°04' E 004°05'7 7.3
2015-Apr-03 12:33N 51°59' E 003°57'7 6.7
2015-Apr-03 11:33N 51°54' E 003°51'4 4.2
2015-Apr-03 10:34N 51°51' E 003°56'4 3.9
2015-Apr-03 09:33N 51°50' E 004°02'1 0.8
2015-Apr-03 08:33N 51°49' E 004°03'3 2.8
2015-Apr-03 07:33N 51°49' E 004°08'0 0.0
2015-Apr-03 06:33N 51°49' E 004°08'0 0.0
2015-Apr-03 05:30N 51°49' E 004°08'0 0.0
2015-Apr-03 04:30N 51°49' E 004°08'0 0.0
2015-Apr-03 03:33N 51°49' E 004°08'0 0.0
2015-Apr-03 02:33N 51°49' E 004°08'0 0.0
2015-Apr-03 01:33N 51°49' E 004°08'0 0.0
2015-Apr-03 00:30N 51°49' E 004°08'0 0.0
2015-Apr-02 23:33N 51°49' E 004°08'0 0.0
2015-Apr-02 22:33N 51°49' E 004°08'0 0.0
2015-Apr-02 21:30N 51°49' E 004°08'0 0.0
2015-Apr-02 20:33N 51°49' E 004°08'0 0.0
2015-Apr-02 19:33N 51°49' E 004°08'0 0.0
2015-Apr-02 18:27N 51°49' E 004°08'0 0.0
2015-Apr-02 17:33N 51°49' E 004°08'0 0.0
2015-Apr-02 16:15N 51°49' E 004°08'0 0.0
2015-Apr-02 15:33N 51°49' E 004°08'4 3.9
2015-Apr-02 14:33N 51°47' E 004°12'5 4.7
2015-Apr-02 13:33N 51°45' E 004°19'4 3.7
2015-Apr-02 12:32N 51°43' E 004°25'3 3.1
2015-Apr-02 11:31N 51°42' E 004°29'5 5.7
2015-Apr-02 10:33N 51°44' E 004°38'5 4.9
2015-Apr-02 09:34N 51°48' E 004°36'5 5.1
2015-Apr-02 08:33N 51°50' E 004°28'5 4.9
2015-Apr-02 07:34N 51°52' E 004°20'3 3.2
2015-Apr-02 06:34N 51°54' E 004°17'3 2.9
2015-Apr-02 05:33N 51°54' E 004°21'4 3.9
2015-Apr-02 04:34N 51°54' E 004°28'1 0.7
2015-Apr-02 03:32N 51°54' E 004°29'0 0.0
2015-Apr-02 02:31N 51°54' E 004°29'0 0.0
2015-Apr-02 01:31N 51°54' E 004°29'0 0.0
2015-Apr-02 00:31N 51°54' E 004°29'0 0.0
2015-Apr-01 23:32N 51°54' E 004°29'0 0.0
2015-Apr-01 22:31N 51°54' E 004°29'0 0.0
2015-Apr-01 21:31N 51°54' E 004°29'0 0.0
2015-Apr-01 20:31N 51°54' E 004°29'0 0.0
2015-Apr-01 19:31N 51°54' E 004°29'0 0.0
2015-Apr-01 18:31N 51°54' E 004°29'0 0.0
2015-Apr-01 17:32N 51°54' E 004°29'0 0.0
2015-Apr-01 16:31N 51°54' E 004°29'0 0.0
2015-Apr-01 15:31N 51°54' E 004°29'0 0.0
2015-Apr-01 14:31N 51°54' E 004°29'0 0.0
2015-Apr-01 13:31N 51°54' E 004°29'0 0.0
2015-Apr-01 12:31N 51°54' E 004°29'0 0.0
2015-Apr-01 11:31N 51°54' E 004°29'0 0.0
2015-Apr-01 10:31N 51°54' E 004°29'0 0.0
2015-Apr-01 09:31N 51°54' E 004°29'0 0.0
2015-Apr-01 08:31N 51°54' E 004°29'0 0.0
2015-Apr-01 07:31N 51°54' E 004°29'0 0.0
2015-Apr-01 06:31N 51°54' E 004°29'0 0.0
2015-Apr-01 05:31N 51°54' E 004°29'0 0.0
2015-Apr-01 04:31N 51°54' E 004°29'0 0.0
2015-Apr-01 03:31N 51°54' E 004°29'0 0.0
2015-Apr-01 02:31N 51°54' E 004°29'0 0.0
2015-Apr-01 01:31N 51°54' E 004°29'0 0.0
2015-Apr-01 00:31N 51°54' E 004°29'0 0.0
2015-Mar-31 23:31N 51°54' E 004°29'0 0.0
2015-Mar-31 22:31N 51°54' E 004°29'0 0.0
2015-Mar-31 21:31N 51°54' E 004°29'0 0.0
2015-Mar-31 20:28N 51°54' E 004°29'0 0.0
2015-Mar-31 19:31N 51°54' E 004°29'0 0.0
2015-Mar-31 18:31N 51°54' E 004°29'0 0.0
2015-Mar-31 17:31N 51°54' E 004°29'0 0.0
2015-Mar-31 16:29N 51°54' E 004°29'0 0.0
2015-Mar-31 15:32N 51°54' E 004°29'0 0.0
2015-Mar-31 14:32N 51°54' E 004°29'0 0.0
2015-Mar-31 13:32N 51°54' E 004°29'0 0.0
2015-Mar-31 12:32N 51°54' E 004°29'0 0.0
2015-Mar-31 11:32N 51°54' E 004°29'0 0.0
2015-Mar-31 10:32N 51°54' E 004°29'0 0.0
2015-Mar-31 09:32N 51°54' E 004°29'0 0.0
2015-Mar-31 08:32N 51°54' E 004°29'0 0.0
2015-Mar-31 07:32N 51°54' E 004°29'0 0.0
2015-Mar-31 06:32N 51°54' E 004°29'0 0.0
2015-Mar-31 05:32N 51°54' E 004°29'0 0.0
2015-Mar-31 04:32N 51°54' E 004°29'0 0.0
2015-Mar-31 03:32N 51°54' E 004°29'0 0.0
2015-Mar-31 02:32N 51°54' E 004°29'0 0.0
2015-Mar-31 01:32N 51°54' E 004°29'0 0.0
2015-Mar-31 00:32N 51°54' E 004°29'0 0.0
2015-Mar-30 23:32N 51°54' E 004°29'0 0.0
2015-Mar-30 22:32N 51°54' E 004°29'0 0.0
2015-Mar-30 21:32N 51°54' E 004°29'0 0.0
2015-Mar-30 20:32N 51°54' E 004°29'0 0.0
2015-Mar-30 19:32N 51°54' E 004°29'0 0.0
2015-Mar-30 18:32N 51°54' E 004°29'0 0.0
2015-Mar-30 17:32N 51°54' E 004°29'0 0.0
2015-Mar-30 16:32N 51°54' E 004°29'0 0.0
2015-Mar-30 15:32N 51°54' E 004°29'0 0.0
2015-Mar-30 14:32N 51°54' E 004°29'0 0.0
2015-Mar-30 13:32N 51°54' E 004°29'0 0.0
2015-Mar-30 12:32N 51°54' E 004°29'0 0.0
2015-Mar-30 11:32N 51°54' E 004°29'0 0.0
2015-Mar-30 10:32N 51°54' E 004°29'0 0.0
2015-Mar-30 09:32N 51°54' E 004°29'0 0.0
2015-Mar-30 08:32N 51°54' E 004°29'0 0.0
2015-Mar-30 07:32N 51°54' E 004°29'0 0.0
2015-Mar-30 06:29N 51°54' E 004°29'0 0.0
2015-Mar-30 05:32N 51°54' E 004°29'0 0.0
2015-Mar-30 04:32N 51°54' E 004°29'0 0.0
2015-Mar-30 03:32N 51°54' E 004°29'0 0.0
2015-Mar-30 02:32N 51°54' E 004°29'0 0.0
2015-Mar-30 01:32N 51°54' E 004°29'0 0.0
2015-Mar-30 00:32N 51°54' E 004°29'0 0.0
2015-Mar-29 23:32N 51°54' E 004°29'0 0.0
2015-Mar-29 22:32N 51°54' E 004°29'0 0.0
2015-Mar-29 21:32N 51°54' E 004°29'0 0.0
2015-Mar-29 20:29N 51°54' E 004°29'0 0.0
2015-Mar-29 19:32N 51°54' E 004°29'0 0.0
2015-Mar-29 18:32N 51°54' E 004°29'0 0.0
2015-Mar-29 17:32N 51°54' E 004°29'0 0.0
2015-Mar-29 16:32N 51°54' E 004°29'0 0.0
2015-Mar-29 15:32N 51°54' E 004°29'0 0.0
2015-Mar-29 14:32N 51°54' E 004°29'0 0.0
2015-Mar-29 13:32N 51°54' E 004°29'0 0.0
2015-Mar-29 12:32N 51°54' E 004°29'0 0.0
2015-Mar-29 11:32N 51°54' E 004°29'0 0.0
2015-Mar-29 10:32N 51°54' E 004°29'0 0.0
2015-Mar-29 09:32N 51°54' E 004°29'0 0.0
2015-Mar-29 08:32N 51°54' E 004°29'0 0.0
2015-Mar-29 07:29N 51°54' E 004°29'0 0.0
2015-Mar-29 06:29N 51°54' E 004°29'0 0.0
2015-Mar-29 05:29N 51°54' E 004°29'0 0.0
2015-Mar-29 04:32N 51°54' E 004°29'0 0.0
2015-Mar-29 03:32N 51°54' E 004°29'0 0.0
2015-Mar-29 02:32N 51°54' E 004°29'0 0.0
2015-Mar-29 01:32N 51°54' E 004°29'0 0.0
2015-Mar-29 00:32N 51°54' E 004°29'0 0.0
2015-Mar-28 23:32N 51°54' E 004°29'0 0.0
2015-Mar-28 22:32N 51°54' E 004°29'0 0.0
2015-Mar-28 21:32N 51°54' E 004°29'0 0.0
2015-Mar-28 20:32N 51°54' E 004°29'0 0.0
2015-Mar-28 19:32N 51°54' E 004°29'0 0.0
2015-Mar-28 18:32N 51°54' E 004°29'0 0.0
2015-Mar-28 17:32N 51°54' E 004°29'0 0.0
2015-Mar-28 16:29N 51°54' E 004°29'0 0.0
2015-Mar-28 15:32N 51°54' E 004°29'0 0.0
2015-Mar-28 14:32N 51°54' E 004°29'0 0.0
2015-Mar-28 13:32N 51°54' E 004°29'0 0.0
2015-Mar-28 12:32N 51°54' E 004°29'0 0.0
2015-Mar-28 11:32N 51°54' E 004°29'0 0.0
2015-Mar-28 10:32N 51°54' E 004°29'0 0.0
2015-Mar-28 09:32N 51°54' E 004°29'0 0.0
2015-Mar-28 08:32N 51°54' E 004°29'0 0.0
2015-Mar-28 07:32N 51°54' E 004°29'0 0.0
2015-Mar-28 06:32N 51°54' E 004°29'0 0.0
2015-Mar-28 05:32N 51°54' E 004°29'0 0.0
2015-Mar-28 04:32N 51°54' E 004°29'0 0.0
2015-Mar-28 03:29N 51°54' E 004°29'0 0.0
2015-Mar-28 02:32N 51°54' E 004°29'0 0.0
2015-Mar-28 01:32N 51°54' E 004°29'0 0.0
2015-Mar-28 00:29N 51°54' E 004°29'0 0.0
2015-Mar-27 23:32N 51°54' E 004°29'0 0.0
2015-Mar-27 22:32N 51°54' E 004°29'  

Dump ship's entire track history